Time;durP1;ratioP1;P1;durP2;ratioP2;P2;SDS_P1;SDS_P2;PMS_P1;PMS_P2;Temp;Humidity;BMP_temperature;BMP_pressure;BME280_temperature;BME280_humidity;BME280_pressure;Samples;Min_cycle;Max_cycle;Signal;HPM_P1;HPM_P2
2023/05/29 00:01:44;;;;;;;;;65.67;48.33;26.60;49.20;;;;;;111315;1239;53721;-61
2023/05/29 00:04:11;;;;;;;;;63.50;47.00;26.60;49.20;;;;;;111382;1241;45447;-61
2023/05/29 00:06:38;;;;;;;;;64.00;45.33;26.60;49.10;;;;;;111376;1241;50004;-61
2023/05/29 00:09:05;;;;;;;;;61.00;43.00;26.60;49.10;;;;;;111264;1240;49199;-60
2023/05/29 00:11:33;;;;;;;;;69.33;46.67;26.50;49.00;;;;;;111195;1238;54027;-60
2023/05/29 00:14:00;;;;;;;;;70.00;51.50;26.50;49.30;;;;;;111220;1241;44739;-61
2023/05/29 00:16:29;;;;;;;;;65.75;47.50;26.50;49.10;;;;;;111176;1238;51133;-61
2023/05/29 00:18:56;;;;;;;;;66.00;46.50;26.50;49.10;;;;;;111218;1238;49081;-60
2023/05/29 00:21:23;;;;;;;;;67.00;47.75;26.50;49.10;;;;;;111160;1244;53612;-60
2023/05/29 00:23:50;;;;;;;;;62.50;44.50;26.50;49.30;;;;;;111214;1243;44697;-60
2023/05/29 00:26:17;;;;;;;;;69.50;49.00;26.50;49.30;;;;;;111192;1240;49470;-60
2023/05/29 00:28:44;;;;;;;;;64.25;48.50;26.40;49.10;;;;;;111395;1244;49760;-62
2023/05/29 00:31:11;;;;;;;;;57.75;43.75;26.40;49.10;;;;;;111096;1243;53586;-60
2023/05/29 00:33:38;;;;;;;;;60.00;46.00;26.40;49.30;;;;;;111355;1238;45491;-60
2023/05/29 00:36:05;;;;;;;;;62.00;44.00;26.30;49.10;;;;;;111195;1238;49211;-60
2023/05/29 00:38:33;;;;;;;;;61.67;46.67;26.30;49.10;;;;;;111231;1242;48898;-62
2023/05/29 00:41:00;;;;;;;;;59.25;43.25;26.30;49.20;;;;;;111305;1243;53945;-60
2023/05/29 00:43:27;;;;;;;;;63.75;47.75;26.30;49.20;;;;;;111263;1242;45033;-61
2023/05/29 00:45:54;;;;;;;;;59.33;46.33;26.30;49.10;;;;;;111367;1241;50605;-60
2023/05/29 00:48:21;;;;;;;;;60.50;46.75;26.30;49.10;;;;;;111088;1241;49580;-60
2023/05/29 00:50:48;;;;;;;;;56.50;41.75;26.20;49.20;;;;;;111201;1241;54205;-62
2023/05/29 00:53:15;;;;;;;;;61.50;44.00;26.20;49.00;;;;;;111197;1243;44756;-61
2023/05/29 00:55:43;;;;;;;;;55.00;42.00;26.20;49.10;;;;;;111267;1244;49325;-60
2023/05/29 00:58:10;;;;;;;;;62.25;44.00;26.20;49.10;;;;;;111496;1239;49599;-60
2023/05/29 01:00:38;;;;;;;;;61.25;43.75;26.20;49.10;;;;;;111328;1243;54254;-60
2023/05/29 01:03:07;;;;;;;;;55.50;43.00;26.20;49.10;;;;;;111344;1238;44720;-60
2023/05/29 01:05:35;;;;;;;;;55.00;41.00;26.10;49.20;;;;;;111264;1239;48868;-59
2023/05/29 01:08:02;;;;;;;;;57.00;42.50;26.10;49.10;;;;;;111324;1243;49544;-60
2023/05/29 01:10:31;;;;;;;;;60.00;45.67;26.10;49.00;;;;;;111406;1241;53932;-59
2023/05/29 01:13:11;;;;;;;;;57.33;43.33;26.10;49.00;;;;;;111516;1243;45032;-60
2023/05/29 01:15:49;;;;;;;;;59.00;43.75;26.10;49.00;;;;;;111201;1240;49852;-60
2023/05/29 01:18:35;;;;;;;;;54.00;39.33;26.00;49.00;;;;;;111216;1241;50066;-60
2023/05/29 01:21:16;;;;;;;;;57.33;42.33;26.00;48.90;;;;;;110816;1241;613766;-60
2023/05/29 01:23:53;;;;;;;;;56.33;39.33;26.00;48.90;;;;;;111370;1241;45082;-61
2023/05/29 01:26:42;;;;;;;;;61.25;41.25;26.00;49.00;;;;;;111512;1241;49002;-60
2023/05/29 01:29:10;;;;;;;;;54.33;39.33;26.00;49.00;;;;;;111442;1241;49251;-60
2023/05/29 01:31:39;;;;;;;;;51.50;40.00;26.00;49.00;;;;;;111528;1241;53360;-59
2023/05/29 01:34:06;;;;;;;;;49.75;37.75;26.00;49.00;;;;;;111577;1240;45264;-61
2023/05/29 01:36:33;;;;;;;;;50.33;36.00;25.90;48.90;;;;;;111470;1238;49779;-60
2023/05/29 01:39:01;;;;;;;;;57.25;40.50;25.90;48.90;;;;;;111412;1242;50172;-61
2023/05/29 01:41:29;;;;;;;;;50.00;36.50;25.90;48.90;;;;;;111392;1238;53835;-60
2023/05/29 01:43:57;;;;;;;;;52.50;40.50;25.90;49.00;;;;;;111463;1241;45125;-60
2023/05/29 01:46:25;;;;;;;;;56.25;41.25;25.90;49.20;;;;;;111246;1243;49845;-59
2023/05/29 01:48:54;;;;;;;;;46.00;34.25;25.90;49.10;;;;;;111263;1240;50538;-60
2023/05/29 01:51:21;;;;;;;;;58.33;39.67;25.90;49.00;;;;;;111451;1237;53388;-60
2023/05/29 01:53:48;;;;;;;;;47.50;37.25;25.80;49.00;;;;;;111334;1241;44906;-61
2023/05/29 01:56:16;;;;;;;;;47.00;37.75;25.80;49.00;;;;;;111482;1238;49633;-61
2023/05/29 01:58:43;;;;;;;;;51.00;40.00;25.80;49.00;;;;;;111527;1241;49882;-61
2023/05/29 02:01:11;;;;;;;;;45.25;34.75;25.80;49.00;;;;;;111476;1238;54044;-60
2023/05/29 02:03:38;;;;;;;;;51.67;40.33;25.80;49.20;;;;;;111573;1243;45074;-59
2023/05/29 02:06:06;;;;;;;;;52.50;39.00;25.70;49.00;;;;;;111418;1238;49218;-60
2023/05/29 02:08:33;;;;;;;;;45.00;34.00;25.70;49.00;;;;;;111542;1238;49085;-60
2023/05/29 02:11:00;;;;;;;;;47.50;36.00;25.70;49.00;;;;;;111435;1241;53440;-60
2023/05/29 02:13:27;;;;;;;;;52.25;39.75;25.70;49.00;;;;;;111286;1238;44992;-61
2023/05/29 02:15:54;;;;;;;;;48.33;37.33;25.70;49.20;;;;;;111230;1243;49180;-60
2023/05/29 02:18:21;;;;;;;;;44.25;34.25;25.70;49.00;;;;;;111432;1238;49480;-60
2023/05/29 02:20:48;;;;;;;;;50.25;38.25;25.70;49.00;;;;;;111361;1241;53888;-60
2023/05/29 02:23:15;;;;;;;;;51.50;38.00;25.70;49.00;;;;;;111447;1239;44575;-60
2023/05/29 02:25:42;;;;;;;;;47.00;37.00;25.60;49.10;;;;;;111526;1241;49380;-60
2023/05/29 02:28:09;;;;;;;;;49.67;37.00;25.60;49.00;;;;;;111483;1238;49816;-60
2023/05/29 02:30:36;;;;;;;;;44.25;32.75;25.60;48.90;;;;;;111470;1244;54730;-60
2023/05/29 02:33:03;;;;;;;;;40.00;30.67;25.60;49.00;;;;;;111552;1241;44811;-61
2023/05/29 02:35:30;;;;;;;;;47.00;36.25;25.60;49.00;;;;;;111444;1237;49577;-61
2023/05/29 02:37:57;;;;;;;;;44.50;34.75;25.50;49.20;;;;;;111487;1238;49954;-60
2023/05/29 02:40:24;;;;;;;;;49.00;38.00;25.50;49.00;;;;;;111462;1241;53627;-60
2023/05/29 02:42:51;;;;;;;;;39.33;33.00;25.50;49.00;;;;;;111470;1241;44212;-60
2023/05/29 02:45:18;;;;;;;;;37.50;32.50;25.50;49.00;;;;;;111456;1238;49628;-61
2023/05/29 02:47:45;;;;;;;;;44.00;35.00;25.50;49.30;;;;;;111495;1241;49725;-60
2023/05/29 02:50:14;;;;;;;;;37.67;32.00;25.50;49.00;;;;;;111454;1238;53331;-60
2023/05/29 02:52:41;;;;;;;;;49.67;34.00;25.50;49.00;;;;;;111380;1238;45861;-59
2023/05/29 02:55:08;;;;;;;;;44.50;34.75;25.50;49.10;;;;;;111448;1238;49599;-60
2023/05/29 02:57:35;;;;;;;;;43.00;33.25;25.40;49.00;;;;;;111665;1241;49884;-60
2023/05/29 03:00:07;;;;;;;;;39.75;31.00;25.50;49.00;;;;;;111548;1238;54065;-60
2023/05/29 03:02:35;;;;;;;;;40.33;32.00;25.50;49.00;;;;;;111416;1244;44542;-62
2023/05/29 03:05:02;;;;;;;;;38.75;31.25;25.50;49.10;;;;;;111444;1242;49110;-59
2023/05/29 03:07:29;;;;;;;;;39.50;31.25;25.50;49.10;;;;;;111383;1242;50063;-60
2023/05/29 03:09:56;;;;;;;;;46.25;32.75;25.50;49.00;;;;;;111180;1244;53933;-60
2023/05/29 03:12:24;;;;;;;;;34.25;30.75;25.50;49.00;;;;;;111433;1240;44925;-59
2023/05/29 03:14:51;;;;;;;;;42.25;32.00;25.40;48.90;;;;;;111257;1244;50125;-60
2023/05/29 03:17:20;;;;;;;;;35.25;30.25;25.40;49.00;;;;;;111363;1243;50252;-60
2023/05/29 03:19:47;;;;;;;;;42.00;31.75;25.40;48.90;;;;;;111349;1240;53772;-61
2023/05/29 03:22:14;;;;;;;;;38.00;30.50;25.40;49.00;;;;;;111246;1238;44160;-61
2023/05/29 03:24:41;;;;;;;;;45.50;34.25;25.40;49.00;;;;;;111352;1243;49628;-61
2023/05/29 03:27:08;;;;;;;;;39.50;31.75;25.40;49.30;;;;;;111244;1244;49658;-61
2023/05/29 03:29:35;;;;;;;;;38.00;32.50;25.40;49.10;;;;;;111419;1243;53588;-62
2023/05/29 03:32:02;;;;;;;;;38.25;31.25;25.40;49.00;;;;;;111216;1241;44486;-60
2023/05/29 03:34:30;;;;;;;;;43.67;31.33;25.40;49.00;;;;;;111462;1238;50145;-59
2023/05/29 03:36:57;;;;;;;;;43.67;31.00;25.40;49.00;;;;;;111157;1243;49528;-60
2023/05/29 03:39:24;;;;;;;;;37.67;28.33;25.30;49.00;;;;;;111169;1238;54163;-59
2023/05/29 03:41:51;;;;;;;;;42.00;30.00;25.30;49.00;;;;;;111296;1244;45853;-59
2023/05/29 03:44:18;;;;;;;;;42.75;31.50;25.30;49.00;;;;;;111312;1238;49802;-60
2023/05/29 03:46:44;;;;;;;;;44.75;34.25;25.30;49.00;;;;;;111217;1240;49096;-60
2023/05/29 03:49:11;;;;;;;;;41.50;29.50;25.30;49.20;;;;;;111160;1244;54547;-60
2023/05/29 03:51:38;;;;;;;;;40.00;29.00;25.30;49.00;;;;;;111195;1241;44479;-60
2023/05/29 03:54:05;;;;;;;;;41.25;31.00;25.30;49.00;;;;;;111177;1244;49162;-60
2023/05/29 03:56:32;;;;;;;;;41.75;33.00;25.30;49.00;;;;;;111193;1243;50486;-57
2023/05/29 03:58:59;;;;;;;;;31.25;27.25;25.30;49.00;;;;;;111192;1240;54606;-60
2023/05/29 04:01:26;;;;;;;;;33.50;29.50;25.30;49.00;;;;;;111255;1238;44499;-74
2023/05/29 04:03:53;;;;;;;;;35.25;27.00;25.30;49.60;;;;;;111417;1244;49961;-63
2023/05/29 04:06:21;;;;;;;;;38.00;29.75;25.30;50.50;;;;;;111221;1243;49780;-65
2023/05/29 04:08:48;;;;;;;;;37.75;30.25;25.20;51.00;;;;;;111626;1238;53148;-66
2023/05/29 04:11:15;;;;;;;;;40.50;30.00;25.30;51.30;;;;;;111601;1241;44428;-66
2023/05/29 04:13:42;;;;;;;;;40.00;30.00;25.30;51.40;;;;;;111676;1241;48870;-66
2023/05/29 04:16:09;;;;;;;;;40.75;30.00;25.30;51.30;;;;;;111812;1240;49508;-64
2023/05/29 04:18:36;;;;;;;;;39.00;29.50;25.30;51.70;;;;;;111377;1238;53518;-66
2023/05/29 04:21:03;;;;;;;;;33.50;28.00;25.40;51.50;;;;;;111497;1241;44645;-65
2023/05/29 04:23:30;;;;;;;;;41.67;29.00;25.40;51.60;;;;;;111580;1241;48921;-66
2023/05/29 04:25:57;;;;;;;;;45.25;31.75;25.40;51.50;;;;;;111803;1243;50735;-64
2023/05/29 04:28:24;;;;;;;;;44.50;32.50;25.50;52.30;;;;;;111681;1237;53101;-66
2023/05/29 04:30:51;;;;;;;;;51.00;36.33;25.50;52.00;;;;;;111730;1241;44102;-67
2023/05/29 04:33:20;;;;;;;;;43.67;31.33;25.60;52.10;;;;;;111560;1241;50424;-68
2023/05/29 04:35:48;;;;;;;;;42.75;32.75;25.60;52.00;;;;;;111829;1241;50642;-66
2023/05/29 04:38:15;;;;;;;;;37.67;30.33;25.70;52.30;;;;;;111498;1242;54002;-67
2023/05/29 04:40:44;;;;;;;;;43.00;31.75;25.70;51.90;;;;;;111301;1243;44313;-67
2023/05/29 04:43:11;;;;;;;;;41.00;29.67;25.80;51.90;;;;;;111577;1240;49154;-65
2023/05/29 04:45:38;;;;;;;;;37.25;29.00;25.80;52.20;;;;;;111873;1241;49283;-66
2023/05/29 04:48:05;;;;;;;;;34.50;29.00;25.80;52.20;;;;;;111679;1243;54202;-68
2023/05/29 04:50:33;;;;;;;;;33.00;25.75;25.90;52.50;;;;;;111580;1238;44699;-67
2023/05/29 04:53:00;;;;;;;;;34.33;25.33;25.90;52.60;;;;;;111457;1240;49181;-70
2023/05/29 04:55:27;;;;;;;;;39.50;27.75;25.90;52.50;;;;;;111477;1239;49224;-64
2023/05/29 04:57:54;;;;;;;;;39.75;29.75;25.90;52.20;;;;;;111393;1241;53672;-64
2023/05/29 05:00:21;;;;;;;;;34.33;28.00;25.90;51.70;;;;;;111461;1241;45000;-64
2023/05/29 05:02:49;;;;;;;;;38.00;29.00;25.90;51.40;;;;;;111548;1241;49817;-65
2023/05/29 05:05:16;;;;;;;;;32.25;24.75;25.90;51.20;;;;;;111432;1238;49936;-64
2023/05/29 05:07:43;;;;;;;;;25.67;22.67;25.90;51.10;;;;;;111432;1238;53287;-64
2023/05/29 05:10:10;;;;;;;;;38.25;27.75;25.90;51.30;;;;;;111451;1238;44795;-64
2023/05/29 05:12:38;;;;;;;;;28.50;26.50;25.90;51.10;;;;;;111439;1241;49597;-64
2023/05/29 05:15:06;;;;;;;;;30.00;25.00;25.90;51.50;;;;;;111229;1244;49521;-63
2023/05/29 05:17:33;;;;;;;;;33.00;25.00;25.90;51.50;;;;;;111567;1241;53784;-64
2023/05/29 05:20:00;;;;;;;;;26.00;25.50;25.90;51.30;;;;;;111485;1238;44371;-65
2023/05/29 05:22:26;;;;;;;;;28.50;25.25;26.00;51.60;;;;;;111196;1239;49381;-64
2023/05/29 05:24:54;;;;;;;;;31.67;28.67;26.00;51.30;;;;;;111432;1238;49087;-65
2023/05/29 05:27:21;;;;;;;;;26.00;22.67;26.00;50.90;;;;;;111396;1241;54314;-64
2023/05/29 05:29:48;;;;;;;;;30.00;24.75;26.00;50.70;;;;;;111471;1238;44983;-66
2023/05/29 05:32:15;;;;;;;;;30.25;23.75;26.00;51.10;;;;;;111510;1238;49929;-67
2023/05/29 05:34:41;;;;;;;;;31.75;28.25;26.00;50.90;;;;;;111489;1238;49544;-66
2023/05/29 05:37:09;;;;;;;;;25.00;22.00;26.00;51.40;;;;;;111628;1241;54158;-66
2023/05/29 05:39:36;;;;;;;;;32.00;28.00;26.10;51.20;;;;;;111181;1241;45101;-65
2023/05/29 05:42:04;;;;;;;;;23.75;18.00;26.10;51.00;;;;;;111432;1238;49942;-65
2023/05/29 05:44:31;;;;;;;;;23.50;22.25;26.10;50.80;;;;;;111606;1241;50896;-65
2023/05/29 05:46:58;;;;;;;;;25.00;24.00;26.10;51.10;;;;;;111500;1241;53736;-66
2023/05/29 05:49:25;;;;;;;;;25.33;20.00;26.10;50.70;;;;;;111350;1241;44546;-70
2023/05/29 05:51:52;;;;;;;;;23.00;19.00;26.10;51.20;;;;;;111251;1241;50114;-70
2023/05/29 05:54:19;;;;;;;;;23.50;20.00;26.10;50.60;;;;;;111538;1238;49196;-68
2023/05/29 05:56:46;;;;;;;;;22.75;21.25;26.10;50.70;;;;;;111723;1241;54420;-67
2023/05/29 05:59:13;;;;;;;;;28.25;24.25;26.20;51.30;;;;;;111414;1241;44262;-65
2023/05/29 06:01:41;;;;;;;;;29.00;24.00;26.20;51.30;;;;;;111373;1241;50241;-63
2023/05/29 06:04:08;;;;;;;;;25.75;20.00;26.20;51.30;;;;;;111445;1241;49783;-63
2023/05/29 06:06:35;;;;;;;;;27.00;23.25;26.20;51.60;;;;;;111397;1238;55394;-63
2023/05/29 06:09:04;;;;;;;;;21.00;17.50;26.20;51.40;;;;;;111473;1238;44732;-64
2023/05/29 06:11:31;;;;;;;;;30.00;26.33;26.20;51.00;;;;;;111601;1238;49564;-62
2023/05/29 06:13:59;;;;;;;;;27.25;21.00;26.30;51.20;;;;;;111410;1242;49363;-64
2023/05/29 06:16:26;;;;;;;;;20.75;18.50;26.30;51.30;;;;;;111616;1238;54740;-64
2023/05/29 06:18:53;;;;;;;;;23.00;19.75;26.20;51.00;;;;;;111387;1241;44932;-63
2023/05/29 06:21:21;;;;;;;;;26.67;23.67;26.30;50.90;;;;;;111387;1241;49116;-63
2023/05/29 06:23:48;;;;;;;;;26.00;23.50;26.30;51.70;;;;;;111386;1238;49945;-61
2023/05/29 06:26:15;;;;;;;;;29.50;23.00;26.40;51.20;;;;;;111662;1241;53913;-62
2023/05/29 06:28:42;;;;;;;;;23.50;19.25;26.40;51.00;;;;;;111404;1237;44265;-64
2023/05/29 06:31:10;;;;;;;;;23.00;18.50;26.40;51.10;;;;;;111515;1238;49336;-64
2023/05/29 06:33:37;;;;;;;;;23.25;20.00;26.40;51.00;;;;;;111441;1239;50609;-63
2023/05/29 06:36:05;;;;;;;;;27.75;22.25;26.40;50.80;;;;;;111376;1244;53903;-63
2023/05/29 06:38:32;;;;;;;;;20.33;16.67;26.40;50.90;;;;;;111566;1243;45006;-64
2023/05/29 06:40:59;;;;;;;;;22.50;18.25;26.50;50.90;;;;;;111530;1242;49800;-64
2023/05/29 06:43:28;;;;;;;;;23.00;22.00;26.50;51.00;;;;;;111630;1238;49118;-65
2023/05/29 06:45:55;;;;;;;;;23.75;22.50;26.50;51.00;;;;;;111714;1238;54576;-63
2023/05/29 06:48:22;;;;;;;;;22.00;21.00;26.50;50.90;;;;;;111537;1243;44664;-64
2023/05/29 06:50:49;;;;;;;;;26.00;24.75;26.60;50.90;;;;;;111465;1238;49833;-64
2023/05/29 06:53:16;;;;;;;;;21.00;19.00;26.60;50.80;;;;;;111580;1238;49944;-64
2023/05/29 06:55:43;;;;;;;;;21.50;19.00;26.60;50.60;;;;;;111433;1243;53732;-66
2023/05/29 06:58:10;;;;;;;;;20.00;16.50;26.70;50.80;;;;;;111490;1238;45113;-64
2023/05/29 07:00:37;;;;;;;;;19.67;18.00;26.70;50.40;;;;;;111487;1238;49145;-64
2023/05/29 07:03:04;;;;;;;;;20.33;18.67;26.70;50.20;;;;;;111513;1239;49151;-65
2023/05/29 07:05:30;;;;;;;;;23.25;19.75;26.70;51.00;;;;;;111523;1240;53374;-66
2023/05/29 07:07:57;;;;;;;;;22.00;21.00;26.70;51.50;;;;;;111549;1244;44570;-66
2023/05/29 07:10:24;;;;;;;;;23.25;21.25;26.70;50.60;;;;;;111415;1241;50072;-66
2023/05/29 07:12:51;;;;;;;;;24.00;19.67;26.80;51.30;;;;;;111623;1238;50666;-64
2023/05/29 07:15:18;;;;;;;;;26.00;21.25;26.70;51.20;;;;;;111613;1241;53833;-65
2023/05/29 07:17:45;;;;;;;;;20.00;19.00;26.70;50.80;;;;;;111635;1238;45242;-63
2023/05/29 07:20:12;;;;;;;;;20.00;19.00;26.80;50.50;;;;;;111469;1241;49609;-65
2023/05/29 07:22:39;;;;;;;;;21.50;17.75;26.80;51.10;;;;;;111332;1241;49766;-65
2023/05/29 07:25:07;;;;;;;;;26.33;24.00;26.80;50.40;;;;;;111463;1241;53593;-64
2023/05/29 07:27:35;;;;;;;;;20.00;19.00;26.80;50.80;;;;;;111478;1237;44888;-66
2023/05/29 07:30:05;;;;;;;;;20.50;18.00;26.80;50.70;;;;;;111518;1241;49715;-63
2023/05/29 07:32:32;;;;;;;;;23.00;18.00;26.80;50.50;;;;;;111450;1241;49061;-63
2023/05/29 07:34:59;;;;;;;;;24.50;18.00;26.90;50.50;;;;;;111441;1241;54010;-64
2023/05/29 07:37:26;;;;;;;;;20.25;19.00;26.90;50.90;;;;;;111598;1238;45003;-63
2023/05/29 07:39:53;;;;;;;;;22.50;18.75;27.00;50.70;;;;;;111503;1242;48966;-63
2023/05/29 07:42:20;;;;;;;;;20.00;18.67;27.00;50.40;;;;;;111460;1238;49713;-64
2023/05/29 07:44:47;;;;;;;;;22.33;21.00;27.00;50.40;;;;;;111295;1240;53629;-65
2023/05/29 07:47:15;;;;;;;;;22.25;20.75;27.00;50.60;;;;;;111439;1238;44913;-63
2023/05/29 07:49:42;;;;;;;;;20.25;17.75;27.00;50.30;;;;;;111252;1244;50383;-70
2023/05/29 07:52:09;;;;;;;;;18.67;17.33;27.00;50.30;;;;;;111571;1237;49817;-66
2023/05/29 07:54:36;;;;;;;;;18.25;15.25;27.10;50.20;;;;;;111259;1243;53717;-63
2023/05/29 07:57:03;;;;;;;;;17.25;16.00;27.10;50.70;;;;;;111467;1239;44572;-64
2023/05/29 07:59:30;;;;;;;;;21.75;18.50;27.10;50.30;;;;;;111451;1238;49006;-65
2023/05/29 08:01:58;;;;;;;;;20.00;19.00;27.10;50.30;;;;;;111477;1242;50131;-61
2023/05/29 08:04:25;;;;;;;;;22.50;19.25;27.10;50.20;;;;;;111552;1238;53388;-61
2023/05/29 08:06:52;;;;;;;;;22.00;20.00;27.10;50.10;;;;;;111163;1244;44859;-61
2023/05/29 08:09:19;;;;;;;;;19.50;18.00;27.10;50.50;;;;;;111656;1238;49398;-62
2023/05/29 08:11:46;;;;;;;;;19.75;18.00;27.20;50.10;;;;;;111187;1244;49512;-62
2023/05/29 08:14:15;;;;;;;;;16.33;15.33;27.20;50.10;;;;;;111217;1238;53351;-61
2023/05/29 08:16:42;;;;;;;;;20.25;17.75;27.20;50.30;;;;;;111398;1240;44689;-63
2023/05/29 08:19:09;;;;;;;;;20.75;19.25;27.20;50.10;;;;;;111219;1243;49708;-63
2023/05/29 08:21:37;;;;;;;;;19.00;16.67;27.30;50.10;;;;;;111239;1238;50367;-64
2023/05/29 08:24:05;;;;;;;;;20.00;18.00;27.30;49.90;;;;;;111227;1240;53647;-64
2023/05/29 08:26:32;;;;;;;;;20.00;17.33;27.30;49.90;;;;;;111299;1240;44732;-64
2023/05/29 08:28:59;;;;;;;;;24.00;20.00;27.40;49.90;;;;;;111191;1244;49207;-67
2023/05/29 08:31:26;;;;;;;;;22.00;19.50;27.40;49.90;;;;;;111210;1239;49140;-63
2023/05/29 08:33:54;;;;;;;;;18.00;17.00;27.40;49.80;;;;;;111229;1243;53352;-64
2023/05/29 08:36:21;;;;;;;;;20.50;18.00;27.40;49.70;;;;;;111273;1238;45423;-64
2023/05/29 08:38:49;;;;;;;;;20.25;19.25;27.40;49.90;;;;;;111218;1238;50669;-63
2023/05/29 08:41:31;;;;;;;;;18.00;16.00;27.50;49.70;;;;;;111223;1244;50674;-64
2023/05/29 08:44:00;;;;;;;;;20.33;18.33;27.40;49.60;;;;;;111278;1241;53572;-63
2023/05/29 08:46:27;;;;;;;;;19.75;18.75;27.50;49.70;;;;;;111266;1244;45366;-64
2023/05/29 08:48:58;;;;;;;;;18.67;16.00;27.50;49.60;;;;;;111285;1244;50243;-63
2023/05/29 08:51:31;;;;;;;;;22.50;18.50;27.50;49.50;;;;;;111251;1238;49797;-64
2023/05/29 08:53:58;;;;;;;;;18.75;17.75;27.50;49.60;;;;;;111200;1238;53205;-61
2023/05/29 08:56:25;;;;;;;;;17.75;15.25;27.50;49.50;;;;;;111739;1243;44392;-61
2023/05/29 08:58:53;;;;;;;;;21.25;17.75;27.50;50.10;;;;;;111310;1238;49817;-62
2023/05/29 09:01:21;;;;;;;;;19.75;18.00;27.50;49.70;;;;;;111191;1244;49459;-62
2023/05/29 09:03:48;;;;;;;;;18.00;16.75;27.50;50.00;;;;;;111185;1244;53556;-65
2023/05/29 09:06:17;;;;;;;;;17.25;16.00;27.50;50.20;;;;;;111260;1244;45050;-64
2023/05/29 09:08:44;;;;;;;;;18.25;16.75;27.50;49.70;;;;;;111591;1241;50223;-65
2023/05/29 09:11:11;;;;;;;;;19.75;17.00;27.50;49.60;;;;;;111425;1241;49773;-65
2023/05/29 09:13:38;;;;;;;;;23.25;20.50;27.60;49.60;;;;;;111361;1245;53619;-64
2023/05/29 09:16:06;;;;;;;;;22.50;20.00;27.60;49.80;;;;;;111638;1243;44348;-67
2023/05/29 09:18:33;;;;;;;;;20.00;16.25;27.50;49.80;;;;;;111487;1240;49162;-63
2023/05/29 09:21:08;;;;;;;;;18.33;16.67;27.60;50.00;;;;;;111326;1245;49628;-64
2023/05/29 09:23:35;;;;;;;;;18.50;17.75;27.50;49.70;;;;;;111230;1240;53920;-61
2023/05/29 09:26:03;;;;;;;;;21.50;17.50;27.50;49.70;;;;;;111379;1238;44233;-63
2023/05/29 09:28:33;;;;;;;;;17.00;16.00;27.60;50.00;;;;;;111258;1243;49015;-61
2023/05/29 09:31:00;;;;;;;;;21.00;17.33;27.60;49.90;;;;;;111498;1238;49474;-63
2023/05/29 09:33:27;;;;;;;;;18.50;17.50;27.60;50.10;;;;;;111314;1240;54183;-61
2023/05/29 09:35:54;;;;;;;;;19.75;17.50;27.60;49.80;;;;;;111565;1241;44307;-61
2023/05/29 09:38:21;;;;;;;;;19.75;17.25;27.60;49.60;;;;;;111358;1238;49222;-63
2023/05/29 09:40:48;;;;;;;;;16.50;15.25;27.60;49.60;;;;;;111364;1241;49224;-63
2023/05/29 09:43:17;;;;;;;;;22.00;17.75;27.60;49.80;;;;;;111486;1241;53441;-63
2023/05/29 09:45:46;;;;;;;;;17.00;16.00;27.60;49.60;;;;;;111375;1241;44855;-61
2023/05/29 09:48:15;;;;;;;;;20.00;17.00;27.60;49.90;;;;;;111472;1239;50667;-61
2023/05/29 09:50:44;;;;;;;;;16.25;15.00;27.70;49.60;;;;;;111588;1241;49466;-63
2023/05/29 09:53:25;;;;;;;;;22.00;16.67;27.70;49.70;;;;;;111314;1238;53215;-63
2023/05/29 09:55:54;;;;;;;;;18.67;17.67;27.70;49.80;;;;;;111454;1243;45020;-62
2023/05/29 09:58:25;;;;;;;;;17.33;16.33;27.70;49.80;;;;;;111462;1239;49409;-61
2023/05/29 10:00:53;;;;;;;;;17.25;16.00;27.80;49.80;;;;;;111429;1241;49428;-63
2023/05/29 10:03:21;;;;;;;;;17.50;16.00;27.80;49.70;;;;;;111496;1241;55041;-62
2023/05/29 10:05:52;;;;;;;;;20.00;19.00;27.80;49.70;;;;;;111793;1241;45642;-60
2023/05/29 10:08:20;;;;;;;;;23.00;19.25;27.80;49.70;;;;;;111350;1243;49085;-62
2023/05/29 10:10:56;;;;;;;;;18.33;17.33;27.80;49.50;;;;;;111259;1244;49713;-62
2023/05/29 10:13:26;;;;;;;;;18.75;17.75;27.80;49.10;;;;;;111375;1242;53195;-60
2023/05/29 10:15:54;;;;;;;;;17.25;16.00;27.80;49.10;;;;;;111291;1244;44866;-62
2023/05/29 10:18:25;;;;;;;;;17.33;16.33;27.80;49.20;;;;;;111152;1244;49988;-62
2023/05/29 10:20:58;;;;;;;;;16.00;15.00;27.90;49.30;;;;;;111253;1244;49658;-64
2023/05/29 10:23:26;;;;;;;;;20.00;19.00;27.90;49.40;;;;;;111243;1244;53307;-62
2023/05/29 10:25:56;;;;;;;;;21.25;19.00;27.90;49.50;;;;;;111379;1242;44568;-60
2023/05/29 10:28:24;;;;;;;;;19.25;18.25;27.90;49.30;;;;;;111260;1238;49689;-60
2023/05/29 10:30:56;;;;;;;;;15.00;14.00;27.90;49.50;;;;;;111238;1240;50008;-61
2023/05/29 10:33:29;;;;;;;;;16.75;15.75;27.90;49.50;;;;;;111209;1240;54131;-62
2023/05/29 10:36:15;;;;;;;;;16.25;15.00;28.00;49.50;;;;;;111159;1244;44903;-62
2023/05/29 10:38:45;;;;;;;;;20.00;17.67;28.00;49.80;;;;;;111153;1238;49747;-63
2023/05/29 10:41:25;;;;;;;;;20.25;16.50;28.10;49.80;;;;;;111092;1242;49015;-62
2023/05/29 10:43:57;;;;;;;;;17.00;14.00;28.20;50.10;;;;;;111179;1241;53726;-61
2023/05/29 10:46:47;;;;;;;;;18.67;17.67;28.20;49.90;;;;;;111614;1238;45221;-61
2023/05/29 10:49:18;;;;;;;;;19.33;17.00;28.30;49.90;;;;;;111208;1242;50452;-60
2023/05/29 10:51:45;;;;;;;;;20.25;17.25;28.40;50.10;;;;;;111190;1243;50093;-60
2023/05/29 10:54:16;;;;;;;;;15.00;14.00;28.50;49.90;;;;;;111226;1244;53939;-60
2023/05/29 10:56:45;;;;;;;;;18.50;15.25;28.50;49.80;;;;;;111248;1244;45171;-61
2023/05/29 10:59:12;;;;;;;;;16.25;14.50;28.60;49.90;;;;;;111091;1241;50261;-61
2023/05/29 11:01:39;;;;;;;;;19.75;16.00;28.70;49.80;;;;;;111212;1238;49596;-62
2023/05/29 11:04:15;;;;;;;;;16.75;15.75;28.70;49.70;;;;;;111342;1244;53441;-61
2023/05/29 11:06:43;;;;;;;;;16.75;14.75;28.70;50.20;;;;;;111293;1241;44910;-61
2023/05/29 11:09:30;;;;;;;;;17.25;15.75;28.80;49.80;;;;;;111450;1238;49400;-60
2023/05/29 11:12:32;;;;;;;;;14.50;13.50;28.90;49.80;;;;;;111449;1243;51321;-60
2023/05/29 11:15:12;;;;;;;;;14.75;13.50;28.90;49.90;;;;;;111550;1241;53736;-62
2023/05/29 11:17:39;;;;;;;;;16.33;14.67;29.00;49.70;;;;;;111663;1237;44693;-61
2023/05/29 11:20:08;;;;;;;;;17.75;15.25;29.00;49.60;;;;;;111320;1241;48978;-60
2023/05/29 11:22:44;;;;;;;;;17.50;16.00;29.10;49.50;;;;;;111300;1243;49292;-60
2023/05/29 11:25:13;;;;;;;;;19.67;15.33;29.10;49.70;;;;;;111510;1241;53520;-61
2023/05/29 11:27:43;;;;;;;;;16.00;13.00;29.20;49.70;;;;;;111592;1238;44640;-60
2023/05/29 11:30:10;;;;;;;;;16.67;15.33;29.30;49.60;;;;;;111242;1243;49523;-60
2023/05/29 11:32:40;;;;;;;;;14.00;13.00;29.30;49.50;;;;;;111472;1238;49894;-60
2023/05/29 11:35:08;;;;;;;;;15.00;14.00;29.30;49.40;;;;;;111435;1238;53768;-61
2023/05/29 11:37:37;;;;;;;;;14.50;13.50;29.40;49.60;;;;;;111443;1241;45168;-59
2023/05/29 11:40:05;;;;;;;;;17.00;15.75;29.40;49.30;;;;;;111388;1239;49488;-61
2023/05/29 11:42:32;;;;;;;;;15.33;12.00;29.50;49.60;;;;;;111830;1238;49660;-60
2023/05/29 11:45:20;;;;;;;;;14.25;13.25;29.50;49.40;;;;;;111445;1239;54107;-59
2023/05/29 11:47:58;;;;;;;;;18.00;15.50;29.60;49.30;;;;;;111574;1238;45196;-60
2023/05/29 11:50:33;;;;;;;;;14.75;12.75;29.70;49.50;;;;;;111405;1241;49228;-60
2023/05/29 11:53:00;;;;;;;;;16.50;13.50;29.70;49.80;;;;;;111481;1238;50168;-60
2023/05/29 11:55:28;;;;;;;;;13.75;12.75;29.70;49.50;;;;;;111390;1241;54161;-60
2023/05/29 11:58:00;;;;;;;;;18.75;14.00;29.70;49.50;;;;;;111357;1243;44456;-62
2023/05/29 12:00:31;;;;;;;;;15.00;14.25;29.80;49.50;;;;;;111549;1238;49675;-60
2023/05/29 12:03:06;;;;;;;;;18.00;15.50;29.80;47.20;;;;;;111543;1239;49178;-61
2023/05/29 12:05:55;;;;;;;;;16.50;15.25;29.70;47.10;;;;;;111327;1238;54013;-61
2023/05/29 12:08:23;;;;;;;;;19.33;18.00;29.60;47.10;;;;;;111219;1243;44279;-62
2023/05/29 12:10:52;;;;;;;;;16.75;15.75;29.60;47.50;;;;;;111212;1238;49264;-61
2023/05/29 12:13:21;;;;;;;;;19.00;18.00;29.50;47.30;;;;;;111194;1243;49584;-60
2023/05/29 12:15:49;;;;;;;;;21.00;17.50;29.50;47.30;;;;;;113285;1242;53365;-59
2023/05/29 12:18:16;;;;;;;;;16.67;15.67;29.50;47.40;;;;;;111344;1238;44883;-60
2023/05/29 12:20:44;;;;;;;;;17.00;15.75;29.60;47.30;;;;;;111253;1240;50529;-61
2023/05/29 12:23:13;;;;;;;;;15.50;14.25;29.60;47.10;;;;;;111301;1244;49919;-61
2023/05/29 12:25:40;;;;;;;;;17.33;14.67;29.50;47.20;;;;;;111226;1244;54170;-61